createdAt,value
2017-12-16T00:01:38.369Z,12.87
2017-12-16T00:04:04.519Z,11.53
2017-12-16T00:06:30.702Z,9.23
2017-12-16T00:08:56.913Z,10.90
2017-12-16T00:11:23.147Z,11.37
2017-12-16T00:13:49.285Z,11.27
2017-12-16T00:16:15.450Z,10.80
2017-12-16T00:18:42.490Z,12.37
2017-12-16T00:21:09.985Z,11.77
2017-12-16T00:23:36.100Z,12.00
2017-12-16T00:26:03.288Z,11.77
2017-12-16T00:28:29.436Z,11.70
2017-12-16T00:30:56.405Z,13.37
2017-12-16T00:33:22.982Z,13.90
2017-12-16T00:35:49.168Z,13.77
2017-12-16T00:38:16.041Z,13.00
2017-12-16T00:40:42.897Z,13.40
2017-12-16T00:43:09.107Z,12.73
2017-12-16T00:45:35.275Z,13.20
2017-12-16T00:48:01.619Z,14.00
2017-12-16T00:50:27.781Z,13.43
2017-12-16T00:52:53.986Z,14.43
2017-12-16T00:55:20.147Z,12.07
2017-12-16T00:57:46.284Z,11.30
2017-12-16T01:00:12.506Z,13.97
2017-12-16T01:02:38.903Z,12.60
2017-12-16T01:05:05.728Z,13.60
2017-12-16T01:07:32.686Z,12.30
2017-12-16T01:09:59.544Z,13.27
2017-12-16T01:12:26.400Z,13.70
2017-12-16T01:14:52.641Z,13.07
2017-12-16T01:17:18.942Z,14.97
2017-12-16T01:19:45.041Z,12.87
2017-12-16T01:22:12.835Z,12.03
2017-12-16T01:24:39.048Z,12.20
2017-12-16T01:27:05.189Z,13.93
2017-12-16T01:29:32.190Z,13.50
2017-12-16T01:31:58.400Z,14.40
2017-12-16T01:34:36.810Z,11.43
2017-12-16T01:37:15.264Z,13.43
2017-12-16T01:39:41.421Z,13.03
2017-12-16T01:42:08.264Z,13.10
2017-12-16T01:44:34.409Z,13.40
2017-12-16T01:47:00.608Z,12.63
2017-12-16T01:49:27.608Z,11.07
2017-12-16T01:51:53.835Z,16.47
2017-12-16T01:54:19.933Z,13.47
2017-12-16T01:56:46.446Z,13.47
2017-12-16T01:59:12.552Z,14.17
2017-12-16T02:01:38.724Z,16.17
2017-12-16T02:04:04.858Z,15.17
2017-12-16T02:06:30.953Z,14.83
2017-12-16T02:08:57.080Z,14.77
2017-12-16T02:11:23.990Z,15.00
2017-12-16T02:13:50.128Z,15.10
2017-12-16T02:16:16.382Z,15.43
2017-12-16T02:18:43.309Z,15.67
2017-12-16T02:21:09.492Z,14.50
2017-12-16T02:23:35.606Z,14.13
2017-12-16T02:26:01.904Z,14.70
2017-12-16T02:28:28.731Z,14.63
2017-12-16T02:30:54.855Z,13.33
2017-12-16T02:33:21.027Z,11.37
2017-12-16T02:35:47.254Z,12.53
2017-12-16T02:38:13.454Z,11.97
2017-12-16T02:40:40.341Z,11.80
2017-12-16T02:43:06.569Z,12.73
2017-12-16T02:45:32.680Z,14.03
2017-12-16T02:47:58.837Z,16.27
2017-12-16T02:50:25.022Z,13.60
2017-12-16T02:52:51.181Z,14.17
2017-12-16T02:55:17.353Z,15.07
2017-12-16T02:57:44.243Z,14.80
2017-12-16T03:00:10.360Z,16.63
2017-12-16T03:02:37.173Z,14.40
2017-12-16T03:05:03.390Z,14.07
2017-12-16T03:07:29.496Z,13.37
2017-12-16T03:09:55.814Z,14.60
2017-12-16T03:12:21.932Z,15.37
2017-12-16T03:14:48.041Z,16.47
2017-12-16T03:17:14.233Z,15.90
2017-12-16T03:19:40.381Z,16.43
2017-12-16T03:22:06.582Z,16.17
2017-12-16T03:24:33.465Z,14.90
2017-12-16T03:27:00.589Z,16.47
2017-12-16T03:29:26.706Z,16.57
2017-12-16T03:31:53.628Z,17.00
2017-12-16T03:34:19.769Z,17.87
2017-12-16T03:36:45.956Z,18.60
2017-12-16T03:39:12.113Z,20.23
2017-12-16T03:41:38.326Z,18.40
2017-12-16T03:44:04.473Z,21.13
2017-12-16T03:46:30.624Z,17.47
2017-12-16T03:48:56.932Z,18.80
2017-12-16T03:51:23.049Z,18.23
2017-12-16T03:53:49.200Z,18.53
2017-12-16T03:56:16.097Z,17.10
2017-12-16T03:58:42.276Z,18.87
2017-12-16T04:01:08.410Z,18.07
2017-12-16T04:03:34.497Z,18.67
2017-12-16T04:06:00.649Z,16.63
2017-12-16T04:08:27.837Z,16.97
2017-12-16T04:10:53.992Z,13.80
2017-12-16T04:13:20.126Z,13.60
2017-12-16T04:15:46.260Z,13.43
2017-12-16T04:18:12.473Z,12.40
2017-12-16T04:20:38.622Z,12.40
2017-12-16T04:23:04.732Z,15.13
2017-12-16T04:25:30.873Z,11.00
2017-12-16T04:27:56.980Z,10.67
2017-12-16T04:30:23.157Z,10.80
2017-12-16T04:32:49.365Z,13.48
2017-12-16T04:35:16.285Z,13.13
2017-12-16T04:37:42.496Z,12.63
2017-12-16T04:40:09.344Z,13.37
2017-12-16T04:42:35.449Z,12.83
2017-12-16T04:45:01.599Z,12.63
2017-12-16T04:47:27.837Z,13.77
2017-12-16T04:49:53.960Z,15.40
2017-12-16T04:52:20.062Z,13.00
2017-12-16T04:54:46.959Z,15.87
2017-12-16T04:57:13.219Z,15.13
2017-12-16T04:59:39.390Z,15.50
2017-12-16T05:02:05.516Z,15.80
2017-12-16T05:04:31.664Z,17.25
2017-12-16T05:06:57.870Z,18.65
2017-12-16T05:09:24.056Z,20.43
2017-12-16T05:11:50.217Z,20.95
2017-12-16T05:14:16.330Z,23.12
2017-12-16T05:16:42.490Z,22.92
2017-12-16T05:19:08.608Z,21.35
2017-12-16T05:21:35.540Z,23.27
2017-12-16T05:24:01.687Z,20.73
2017-12-16T05:26:28.676Z,20.30
2017-12-16T05:28:54.774Z,20.13
2017-12-16T05:31:20.957Z,21.27
2017-12-16T05:33:47.136Z,21.00
2017-12-16T05:36:13.772Z,17.87
2017-12-16T05:38:39.972Z,19.48
2017-12-16T05:41:06.078Z,18.55
2017-12-16T05:43:32.229Z,18.48
2017-12-16T05:45:58.496Z,18.75
2017-12-16T05:48:24.670Z,22.15
2017-12-16T05:50:50.782Z,20.05
2017-12-16T05:53:16.897Z,19.48
2017-12-16T05:55:43.060Z,21.40
2017-12-16T05:58:09.929Z,20.25
2017-12-16T06:00:36.093Z,19.17
2017-12-16T06:03:02.189Z,20.23
2017-12-16T06:05:28.352Z,18.37
2017-12-16T06:07:54.505Z,19.47
2017-12-16T06:10:21.344Z,17.80
2017-12-16T06:12:47.502Z,19.77
2017-12-16T06:15:13.613Z,18.42
2017-12-16T06:17:40.045Z,17.75
2017-12-16T06:20:06.308Z,17.33
2017-12-16T06:22:32.537Z,19.58
2017-12-16T06:24:58.657Z,18.10
2017-12-16T06:27:24.774Z,19.57
2017-12-16T06:29:50.959Z,17.05
2017-12-16T06:32:17.103Z,18.53
2017-12-16T06:34:43.977Z,17.37
2017-12-16T06:37:10.140Z,19.67
2017-12-16T06:39:36.340Z,19.05
2017-12-16T06:42:03.489Z,19.33
2017-12-16T06:44:30.671Z,15.93
2017-12-16T06:46:56.809Z,18.30
2017-12-16T06:49:22.937Z,17.77
2017-12-16T06:51:49.148Z,16.83
2017-12-16T06:54:15.370Z,17.47
2017-12-16T06:56:42.257Z,17.43
2017-12-16T06:59:08.450Z,18.33
2017-12-16T07:01:34.554Z,21.03
2017-12-16T07:04:00.711Z,16.45
2017-12-16T07:06:26.817Z,17.42
2017-12-16T07:08:53.063Z,18.95
2017-12-16T07:11:19.240Z,22.48
2017-12-16T07:13:45.434Z,17.75
2017-12-16T07:16:12.417Z,17.70
2017-12-16T07:18:38.602Z,18.35
2017-12-16T07:21:05.561Z,17.85
2017-12-16T07:23:32.597Z,16.83
2017-12-16T07:25:59.537Z,17.65
2017-12-16T07:28:25.785Z,16.30
2017-12-16T07:30:52.730Z,16.55
2017-12-16T07:33:18.855Z,18.50
2017-12-16T07:35:45.021Z,20.88
2017-12-16T07:38:11.181Z,16.33
2017-12-16T07:40:37.324Z,18.67
2017-12-16T07:43:03.422Z,15.90
2017-12-16T07:45:29.574Z,17.08
2017-12-16T07:47:55.718Z,18.60
2017-12-16T07:50:21.893Z,16.37
2017-12-16T07:52:48.040Z,19.20
2017-12-16T07:55:14.142Z,17.92
2017-12-16T07:57:40.281Z,19.13
2017-12-16T08:00:06.475Z,18.30
2017-12-16T08:02:32.616Z,17.52
2017-12-16T08:04:58.946Z,18.53
2017-12-16T08:07:25.778Z,17.27
2017-12-16T08:09:51.998Z,17.65
2017-12-16T08:12:18.141Z,15.43
2017-12-16T08:14:44.300Z,15.98
2017-12-16T08:17:10.432Z,16.45
2017-12-16T08:48:42.936Z,15.73
2017-12-16T08:51:09.113Z,13.57
2017-12-16T08:53:35.190Z,15.80
2017-12-16T08:56:02.313Z,14.43
2017-12-16T08:58:29.173Z,16.87
2017-12-16T09:00:55.321Z,14.80
2017-12-16T09:03:21.477Z,15.23
2017-12-16T09:05:48.360Z,17.50
2017-12-16T09:08:14.478Z,14.87
2017-12-16T09:10:41.341Z,16.77
2017-12-16T09:13:07.542Z,11.45
2017-12-16T09:15:33.694Z,16.43
2017-12-16T09:18:00.606Z,14.00
2017-12-16T09:20:26.760Z,12.33
2017-12-16T09:22:53.013Z,14.23
2017-12-16T09:25:19.234Z,13.75
2017-12-16T09:27:45.350Z,11.87
2017-12-16T09:30:12.304Z,12.70
2017-12-16T09:32:38.472Z,13.63
2017-12-16T09:35:04.628Z,14.40
2017-12-16T09:37:31.538Z,11.73
2017-12-16T09:39:57.702Z,12.93
2017-12-16T09:42:24.574Z,13.60
2017-12-16T09:44:50.862Z,13.93
2017-12-16T09:47:17.034Z,15.83
2017-12-16T09:49:43.180Z,15.67
2017-12-16T09:52:09.357Z,17.93
2017-12-16T09:54:35.483Z,15.83
2017-12-16T09:57:02.408Z,14.37
2017-12-16T09:59:28.534Z,15.67
2017-12-16T10:01:54.703Z,14.17
2017-12-16T10:04:21.922Z,14.23
2017-12-16T10:06:48.104Z,15.47
2017-12-16T10:09:14.297Z,15.13
2017-12-16T10:11:41.185Z,19.17
2017-12-16T10:14:07.365Z,15.83
2017-12-16T10:16:34.342Z,17.33
2017-12-16T10:19:00.668Z,16.47
2017-12-16T10:21:26.903Z,14.10
2017-12-16T10:23:53.026Z,15.23
2017-12-16T10:26:20.192Z,15.30
2017-12-16T10:28:46.402Z,15.23
2017-12-16T10:31:12.972Z,16.07
2017-12-16T10:33:39.429Z,15.60
2017-12-16T10:36:05.605Z,15.90
2017-12-16T10:38:31.785Z,17.17
2017-12-16T10:40:58.788Z,15.63
2017-12-16T10:43:25.030Z,13.70
2017-12-16T10:45:51.212Z,16.97
2017-12-16T10:48:17.410Z,15.33
2017-12-16T10:50:43.598Z,14.67
2017-12-16T10:53:09.822Z,20.17
2017-12-16T10:55:35.981Z,17.83
2017-12-16T10:58:02.269Z,17.67
2017-12-16T11:00:34.373Z,17.10
2017-12-16T11:03:00.595Z,19.53
2017-12-16T11:05:26.781Z,16.60
2017-12-16T11:07:53.519Z,16.53
2017-12-16T11:10:19.675Z,18.40
2017-12-16T11:12:45.929Z,15.97
2017-12-16T11:15:12.328Z,17.90
2017-12-16T11:17:38.581Z,17.37
2017-12-16T11:20:04.817Z,16.57
2017-12-16T11:22:30.958Z,17.23
2017-12-16T11:24:57.100Z,16.40
2017-12-16T11:27:24.042Z,18.27
2017-12-16T11:29:51.028Z,18.03
2017-12-16T11:32:17.213Z,18.90
2017-12-16T11:34:44.125Z,18.93
2017-12-16T11:37:10.259Z,19.60
2017-12-16T11:39:36.807Z,20.27
2017-12-16T11:42:02.914Z,18.50
2017-12-16T11:44:29.102Z,22.77
2017-12-16T11:46:55.398Z,22.23
2017-12-16T11:49:22.289Z,20.60
2017-12-16T11:51:49.599Z,19.10
2017-12-16T11:54:15.748Z,19.00
2017-12-16T11:56:41.948Z,28.77
2017-12-16T11:59:08.975Z,18.53
2017-12-16T12:01:35.117Z,18.17
2017-12-16T12:04:02.013Z,18.07
2017-12-16T12:06:28.190Z,20.40
2017-12-16T12:08:54.317Z,19.17
2017-12-16T12:11:21.353Z,19.33
2017-12-16T12:13:47.641Z,19.73
2017-12-16T12:16:13.852Z,21.43
2017-12-16T12:18:40.018Z,20.43
2017-12-16T12:21:06.192Z,20.70
2017-12-16T12:23:32.412Z,21.67
2017-12-16T12:25:58.561Z,22.07
2017-12-16T12:28:24.706Z,21.83
2017-12-16T12:30:50.854Z,21.67
2017-12-16T12:33:17.075Z,19.67
2017-12-16T12:35:43.411Z,36.10
2017-12-16T12:38:09.610Z,25.40
2017-12-16T12:40:35.796Z,37.07
2017-12-16T12:43:01.978Z,22.83
2017-12-16T12:45:28.161Z,20.40
2017-12-16T12:47:55.122Z,17.73
2017-12-16T12:50:21.663Z,19.77
2017-12-16T20:43:14.526Z,12.20
2017-12-16T20:45:48.247Z,11.90
2017-12-16T20:48:35.701Z,11.27
2017-12-16T20:51:06.260Z,16.33
2017-12-16T20:54:16.295Z,13.13
2017-12-16T20:56:44.718Z,14.13
2017-12-16T20:59:15.515Z,9.50
2017-12-16T21:06:05.577Z,14.77
2017-12-16T21:08:38.853Z,10.05
2017-12-16T21:11:21.647Z,12.25
2017-12-16T21:13:49.696Z,12.10
2017-12-16T21:20:17.588Z,11.82
2017-12-16T21:22:46.032Z,16.05
2017-12-16T21:31:56.673Z,13.88
2017-12-16T21:35:31.914Z,10.30
2017-12-16T21:38:01.316Z,11.32
2017-12-16T21:41:11.238Z,10.30
2017-12-16T21:43:40.234Z,10.90
2017-12-16T21:46:30.011Z,8.93
2017-12-16T21:48:57.978Z,8.30
2017-12-16T21:51:33.559Z,11.05
2017-12-16T21:54:02.171Z,10.23
2017-12-16T21:56:30.297Z,9.68
2017-12-16T21:58:58.301Z,12.88
2017-12-16T22:01:26.747Z,10.73
2017-12-16T22:03:54.717Z,11.93
2017-12-16T22:06:23.788Z,9.20
2017-12-16T22:08:52.464Z,10.82
2017-12-16T22:11:20.537Z,13.70
2017-12-16T22:13:50.052Z,13.07
2017-12-16T22:16:33.385Z,13.85
2017-12-16T22:19:02.228Z,13.50
2017-12-16T22:21:30.888Z,12.52
2017-12-16T22:23:59.826Z,8.98
2017-12-16T22:26:27.929Z,11.65
2017-12-16T22:29:04.452Z,11.07
2017-12-16T22:31:36.177Z,7.00
2017-12-16T22:34:04.239Z,10.20
2017-12-16T22:36:32.836Z,7.37
2017-12-16T22:39:04.086Z,7.10
2017-12-16T23:08:58.480Z,9.05
2017-12-16T23:11:28.672Z,6.80
2017-12-16T23:14:40.281Z,11.05
2017-12-16T23:17:18.280Z,7.22
2017-12-16T23:20:16.788Z,6.40
2017-12-16T23:22:44.594Z,6.53
2017-12-16T23:25:12.864Z,5.20
2017-12-16T23:31:05.796Z,5.18
2017-12-16T23:40:35.430Z,3.55
2017-12-16T23:43:04.481Z,6.07
2017-12-16T23:46:20.441Z,6.80
2017-12-16T23:51:04.492Z,5.65
2017-12-16T23:53:33.071Z,7.50
2017-12-16T23:58:24.817Z,5.10
